createdAt,value
2019-06-10T00:01:13.410Z,0.00
2019-06-10T00:01:40.872Z,0.00
2019-06-10T00:02:41.411Z,0.00
2019-06-10T00:03:42.129Z,0.00
2019-06-10T00:04:41.550Z,0.00
2019-06-10T00:05:41.502Z,0.00
2019-06-10T00:06:41.542Z,0.00
2019-06-10T00:07:41.080Z,0.00
2019-06-10T00:08:41.201Z,0.00
2019-06-10T00:09:40.729Z,0.00
2019-06-10T00:10:42.026Z,0.00
2019-06-10T00:11:41.113Z,0.00
2019-06-10T00:12:41.843Z,0.00
2019-06-10T00:13:41.496Z,0.00
2019-06-10T00:14:41.830Z,0.00
2019-06-10T00:15:40.958Z,0.00
2019-06-10T00:16:41.568Z,0.00
2019-06-10T00:17:53.098Z,0.00
2019-06-10T00:18:43.052Z,0.00
2019-06-10T00:19:40.978Z,0.00
2019-06-10T00:20:40.850Z,0.00
2019-06-10T00:21:41.360Z,0.00
2019-06-10T00:22:40.940Z,0.00
2019-06-10T00:23:41.299Z,0.00
2019-06-10T00:24:40.946Z,0.00
2019-06-10T00:25:41.511Z,0.00
2019-06-10T00:26:41.352Z,0.00
2019-06-10T00:27:41.878Z,0.00
2019-06-10T00:28:40.668Z,0.00
2019-06-10T00:29:40.902Z,0.00
2019-06-10T00:30:41.115Z,0.00
2019-06-10T00:31:41.657Z,0.00
2019-06-10T00:32:41.218Z,0.00
2019-06-10T00:33:41.418Z,0.00
2019-06-10T00:34:41.713Z,0.00
2019-06-10T00:35:41.197Z,0.00
2019-06-10T00:36:41.403Z,0.00
2019-06-10T00:37:41.726Z,0.00
2019-06-10T00:38:41.169Z,0.00
2019-06-10T00:39:40.858Z,0.00
2019-06-10T00:40:41.498Z,0.00
2019-06-10T00:41:39.517Z,0.00
2019-06-10T00:42:41.632Z,0.00
2019-06-10T00:43:41.170Z,0.00
2019-06-10T00:44:41.491Z,0.00
2019-06-10T00:45:41.002Z,0.00
2019-06-10T00:46:40.841Z,0.00
2019-06-10T00:47:41.294Z,0.00
2019-06-10T00:48:40.996Z,0.00
2019-06-10T00:49:40.943Z,0.00
2019-06-10T00:50:41.380Z,0.00
2019-06-10T00:51:41.333Z,0.00
2019-06-10T00:52:42.217Z,0.00
2019-06-10T00:53:39.325Z,0.00
2019-06-10T00:54:41.584Z,0.00
2019-06-10T00:55:41.489Z,0.00
2019-06-10T00:56:41.237Z,0.00
2019-06-10T00:57:41.698Z,0.00
2019-06-10T00:58:40.851Z,0.00
2019-06-10T00:59:41.243Z,0.00
2019-06-10T01:00:41.160Z,0.00
2019-06-10T01:01:41.376Z,0.00
2019-06-10T01:02:41.077Z,0.00
2019-06-10T01:03:41.448Z,0.00
2019-06-10T01:04:40.766Z,0.00
2019-06-10T01:05:41.741Z,0.00
2019-06-10T01:06:39.110Z,0.00
2019-06-10T01:07:41.220Z,0.00
2019-06-10T01:08:40.541Z,0.00
2019-06-10T01:09:41.164Z,0.00
2019-06-10T01:10:39.048Z,0.00
2019-06-10T01:11:41.052Z,0.00
2019-06-10T01:12:40.716Z,0.00
2019-06-10T01:13:41.252Z,0.00
2019-06-10T01:14:41.035Z,0.00
2019-06-10T01:15:41.657Z,0.00
2019-06-10T01:16:41.029Z,0.00
2019-06-10T01:17:38.934Z,0.00
2019-06-10T01:18:41.445Z,0.00
2019-06-10T01:19:41.374Z,0.00
2019-06-10T01:20:41.033Z,0.00
2019-06-10T01:21:38.866Z,0.00
2019-06-10T01:22:40.906Z,0.00
2019-06-10T01:23:38.835Z,0.00
2019-06-10T01:24:40.729Z,0.00
2019-06-10T01:25:38.800Z,0.00
2019-06-10T01:26:41.057Z,0.00
2019-06-10T01:27:40.885Z,0.00
2019-06-10T01:28:40.900Z,0.00
2019-06-10T01:29:38.735Z,0.00
2019-06-10T01:30:41.013Z,0.00
2019-06-10T01:31:38.703Z,0.00
2019-06-10T01:32:38.687Z,0.00
2019-06-10T01:33:40.956Z,0.00
2019-06-10T01:34:38.655Z,0.00
2019-06-10T01:35:41.178Z,0.00
2019-06-10T01:36:40.512Z,0.00
2019-06-10T01:37:38.604Z,0.00
2019-06-10T01:38:40.813Z,0.00
2019-06-10T01:39:38.576Z,0.00
2019-06-10T01:40:38.558Z,0.00
2019-06-10T01:41:40.796Z,0.00
2019-06-10T01:42:38.527Z,0.00
2019-06-10T01:43:40.653Z,0.00
2019-06-10T01:44:38.492Z,0.00
2019-06-10T01:45:38.476Z,0.00
2019-06-10T01:46:40.916Z,0.00
2019-06-10T01:47:38.443Z,0.00
2019-06-10T01:48:45.001Z,0.00
2019-06-10T01:49:38.432Z,0.00
2019-06-10T01:50:40.509Z,0.00
2019-06-10T01:51:38.902Z,0.00
2019-06-10T01:52:38.362Z,0.00
2019-06-10T01:53:38.344Z,0.00
2019-06-10T01:54:38.333Z,0.00
2019-06-10T01:55:38.313Z,0.00
2019-06-10T01:56:40.715Z,0.00
2019-06-10T01:57:38.283Z,0.00
2019-06-10T01:58:40.537Z,0.00
2019-06-10T01:59:38.248Z,0.00
2019-06-10T02:00:38.235Z,0.00
2019-06-10T02:01:38.237Z,0.00
2019-06-10T02:02:38.215Z,0.00
2019-06-10T02:03:38.182Z,0.00
2019-06-10T02:04:41.001Z,0.00
2019-06-10T02:05:38.150Z,0.00
2019-06-10T02:06:40.501Z,0.00
2019-06-10T02:07:38.120Z,0.00
2019-06-10T02:08:38.105Z,0.00
2019-06-10T02:09:38.084Z,0.00
2019-06-10T02:10:38.070Z,0.00
2019-06-10T02:11:38.118Z,0.00
2019-06-10T02:12:38.039Z,0.00
2019-06-10T02:13:38.019Z,0.00
2019-06-10T02:14:38.005Z,0.00
2019-06-10T02:15:37.988Z,0.00
2019-06-10T02:16:37.971Z,0.00
2019-06-10T02:17:37.953Z,0.00
2019-06-10T02:18:37.939Z,0.00
2019-06-10T02:19:37.921Z,0.00
2019-06-10T02:20:37.904Z,0.00
2019-06-10T02:21:37.937Z,0.00
2019-06-10T02:22:37.872Z,0.00
2019-06-10T02:23:37.854Z,0.00
2019-06-10T02:24:37.839Z,0.00
2019-06-10T02:25:37.822Z,0.00
2019-06-10T02:26:37.806Z,0.00
2019-06-10T02:27:37.794Z,0.00
2019-06-10T02:28:37.775Z,0.00
2019-06-10T02:29:37.755Z,0.00
2019-06-10T02:30:46.186Z,0.00
2019-06-10T02:31:38.029Z,0.00
2019-06-10T02:32:38.169Z,0.00
2019-06-10T02:33:37.690Z,0.00
2019-06-10T02:34:50.645Z,0.00
2019-06-10T02:35:43.296Z,0.00
2019-06-10T02:36:37.643Z,0.00
2019-06-10T02:37:38.319Z,4.00
2019-06-10T02:38:39.574Z,4.00
2019-06-10T02:39:38.902Z,4.00
2019-06-10T02:40:37.574Z,4.00
2019-06-10T02:41:37.558Z,4.00
2019-06-10T02:42:37.541Z,0.00
2019-06-10T02:43:38.159Z,4.00
2019-06-10T02:44:37.904Z,4.00
2019-06-10T02:45:37.839Z,4.00
2019-06-10T02:46:37.474Z,4.00
2019-06-10T02:47:38.387Z,8.00
2019-06-10T02:48:37.440Z,4.00
2019-06-10T02:49:52.646Z,8.00
2019-06-10T02:50:37.412Z,12.00
2019-06-10T02:51:37.392Z,8.00
2019-06-10T02:52:38.674Z,12.00
2019-06-10T02:53:37.653Z,12.00
2019-06-10T02:54:37.341Z,16.00
2019-06-10T02:55:37.324Z,16.00
2019-06-10T02:56:37.309Z,16.00
2019-06-10T02:57:40.318Z,20.00
2019-06-10T02:58:39.903Z,24.00
2019-06-10T02:59:37.258Z,28.00
2019-06-10T03:00:47.207Z,28.00
2019-06-10T03:01:38.287Z,32.00
2019-06-10T03:02:37.210Z,36.00
2019-06-10T03:03:44.604Z,40.00
2019-06-10T03:04:37.924Z,44.00
2019-06-10T03:05:40.884Z,48.00
2019-06-10T03:06:40.357Z,48.00
2019-06-10T03:07:37.128Z,56.00
2019-06-10T03:08:37.167Z,60.00
2019-06-10T03:09:37.094Z,68.00
2019-06-10T03:10:37.486Z,76.00
2019-06-10T03:11:37.664Z,88.00
2019-06-10T03:12:37.044Z,100.00
2019-06-10T03:13:37.028Z,108.00
2019-06-10T03:14:37.009Z,124.00
2019-06-10T03:15:36.993Z,132.00
2019-06-10T03:16:36.976Z,144.00
2019-06-10T03:17:36.964Z,156.00
2019-06-10T03:18:36.947Z,164.00
2019-06-10T03:19:46.934Z,184.00
2019-06-10T03:20:36.911Z,200.00
2019-06-10T03:21:36.896Z,220.00
2019-06-10T03:22:36.877Z,240.00
2019-06-10T03:23:36.861Z,264.00
2019-06-10T03:24:36.849Z,284.00
2019-06-10T03:25:36.828Z,308.00
2019-06-10T03:26:36.811Z,340.00
2019-06-10T03:27:36.797Z,376.00
2019-06-10T03:28:36.777Z,408.00
2019-06-10T03:29:36.764Z,444.00
2019-06-10T03:30:48.012Z,484.00
2019-06-10T03:31:42.009Z,520.00
2019-06-10T03:32:40.913Z,556.00
2019-06-10T03:33:41.465Z,588.00
2019-06-10T03:34:41.994Z,620.00
2019-06-10T03:35:36.664Z,652.00
2019-06-10T03:36:36.647Z,680.00
2019-06-10T03:37:36.628Z,704.00
2019-06-10T03:38:37.178Z,728.00
2019-06-10T03:39:36.598Z,760.00
2019-06-10T03:40:36.579Z,792.00
2019-06-10T03:41:36.565Z,836.00
2019-06-10T03:42:36.547Z,880.00
2019-06-10T03:43:36.529Z,940.00
2019-06-10T03:44:36.515Z,1000.00
2019-06-10T03:45:36.496Z,1048.00
2019-06-10T03:46:36.479Z,1092.00
2019-06-10T03:47:36.464Z,1116.00
2019-06-10T03:48:36.448Z,1124.00
2019-06-10T03:49:49.126Z,1108.00
2019-06-10T03:50:36.416Z,1088.00
2019-06-10T03:51:36.398Z,1060.00
2019-06-10T03:52:36.380Z,1016.00
2019-06-10T03:53:36.363Z,968.00
2019-06-10T03:54:36.348Z,936.00
2019-06-10T03:55:36.332Z,928.00
2019-06-10T03:56:36.316Z,940.00
2019-06-10T03:57:36.305Z,964.00
2019-06-10T03:58:36.281Z,972.00
2019-06-10T03:59:36.264Z,956.00
2019-06-10T04:00:37.055Z,924.00
2019-06-10T04:01:36.232Z,880.00
2019-06-10T04:02:36.217Z,844.00
2019-06-10T04:03:36.197Z,816.00
2019-06-10T04:04:36.181Z,792.00
2019-06-10T04:05:36.167Z,788.00
2019-06-10T04:06:36.150Z,780.00
2019-06-10T04:07:36.134Z,780.00
2019-06-10T04:08:36.116Z,780.00
2019-06-10T04:09:36.099Z,744.00
2019-06-10T04:10:36.084Z,696.00
2019-06-10T04:11:36.066Z,672.00
2019-06-10T04:12:36.052Z,644.00
2019-06-10T04:13:36.037Z,620.00
2019-06-10T04:14:36.017Z,596.00
2019-06-10T04:15:36.005Z,588.00
2019-06-10T04:16:35.986Z,596.00
2019-06-10T04:17:35.968Z,612.00
2019-06-10T04:18:35.955Z,624.00
2019-06-10T04:19:35.943Z,640.00
2019-06-10T04:20:35.923Z,684.00
2019-06-10T04:21:35.903Z,768.00
2019-06-10T04:22:35.887Z,860.00
2019-06-10T04:23:35.871Z,952.00
2019-06-10T04:24:35.856Z,1016.00
2019-06-10T04:25:35.838Z,1052.00
2019-06-10T04:26:35.823Z,1092.00
2019-06-10T04:27:35.809Z,1112.00
2019-06-10T04:28:35.790Z,1124.00
2019-06-10T04:29:35.775Z,1116.00
2019-06-10T04:30:35.758Z,1080.00
2019-06-10T04:31:35.750Z,1052.00
2019-06-10T04:32:35.726Z,1024.00
2019-06-10T04:33:35.715Z,1016.00
2019-06-10T04:34:35.697Z,1004.00
2019-06-10T04:35:35.677Z,988.00
2019-06-10T04:36:35.665Z,976.00
2019-06-10T04:37:35.645Z,984.00
2019-06-10T04:38:35.634Z,1000.00
2019-06-10T04:39:35.613Z,1024.00
2019-06-10T04:40:35.597Z,1036.00
2019-06-10T04:41:35.581Z,1068.00
2019-06-10T04:42:35.564Z,1104.00
2019-06-10T04:43:35.549Z,1148.00
2019-06-10T04:44:35.533Z,1308.00
2019-06-10T04:45:35.515Z,1380.00
2019-06-10T04:46:35.501Z,1452.00
2019-06-10T04:47:35.484Z,1532.00
2019-06-10T04:48:35.470Z,1628.00
2019-06-10T04:49:35.452Z,1728.00
2019-06-10T04:50:42.559Z,1848.00
2019-06-10T04:51:35.422Z,1992.00
2019-06-10T04:52:35.409Z,2204.00
2019-06-10T04:53:35.386Z,2420.00
2019-06-10T04:54:35.371Z,2636.00
2019-06-10T04:55:35.355Z,2852.00
2019-06-10T04:56:35.337Z,3096.00
2019-06-10T04:57:35.321Z,3380.00
2019-06-10T04:58:35.305Z,3612.00
2019-06-10T04:59:35.290Z,3756.00
2019-06-10T05:00:35.273Z,3880.00
2019-06-10T05:01:35.259Z,4040.00
2019-06-10T05:02:35.241Z,4192.00
2019-06-10T05:03:35.226Z,4380.00
2019-06-10T05:04:35.215Z,4576.00
2019-06-10T05:05:35.191Z,4908.00
2019-06-10T05:06:35.174Z,5204.00
2019-06-10T05:07:37.138Z,5296.00
2019-06-10T05:08:35.145Z,5408.00
2019-06-10T05:09:35.128Z,5484.00
2019-06-10T05:10:35.114Z,5324.00
2019-06-10T05:11:35.094Z,5268.00
2019-06-10T05:12:35.079Z,5684.00
2019-06-10T05:13:35.063Z,5836.00
2019-06-10T05:14:35.047Z,5792.00
2019-06-10T05:15:35.238Z,5784.00
2019-06-10T05:16:35.821Z,5712.00
2019-06-10T05:17:34.999Z,5528.00
2019-06-10T05:18:34.980Z,5128.00
2019-06-10T05:19:34.964Z,4836.00
2019-06-10T05:20:50.989Z,4872.00
2019-06-10T05:21:34.933Z,4980.00
2019-06-10T05:22:34.917Z,4896.00
2019-06-10T05:23:34.902Z,4848.00
2019-06-10T05:24:34.888Z,5056.00
2019-06-10T05:25:34.869Z,5244.00
2019-06-10T05:26:34.854Z,5364.00
2019-06-10T05:27:34.841Z,5488.00
2019-06-10T05:28:34.822Z,5748.00
2019-06-10T05:29:34.813Z,6132.00
2019-06-10T05:30:34.789Z,6496.00
2019-06-10T05:31:35.244Z,6880.00
2019-06-10T05:32:34.760Z,7244.00
2019-06-10T05:33:34.758Z,7540.00
2019-06-10T05:34:34.919Z,7896.00
2019-06-10T05:35:34.720Z,8372.00
2019-06-10T05:36:34.913Z,8936.00
2019-06-10T05:37:34.679Z,9552.00
2019-06-10T05:38:35.305Z,9964.00
2019-06-10T05:39:35.260Z,9944.00
2019-06-10T05:40:34.634Z,9492.00
2019-06-10T05:41:35.252Z,8412.00
2019-06-10T05:42:36.123Z,7424.00
2019-06-10T05:43:34.736Z,7096.00
2019-06-10T05:44:34.739Z,6872.00
2019-06-10T05:45:35.112Z,6720.00
2019-06-10T05:46:35.025Z,6728.00
2019-06-10T05:47:36.103Z,6644.00
2019-06-10T05:48:35.142Z,6696.00
2019-06-10T05:49:36.200Z,6828.00
2019-06-10T05:50:34.961Z,6976.00
2019-06-10T05:51:35.387Z,7808.00
2019-06-10T05:52:35.180Z,8780.00
2019-06-10T05:53:35.527Z,9304.00
2019-06-10T05:54:35.514Z,9000.00
2019-06-10T05:55:35.282Z,8356.00
2019-06-10T05:56:35.719Z,9012.00
2019-06-10T05:57:35.595Z,9960.00
2019-06-10T05:58:35.938Z,10628.00
2019-06-10T05:59:35.897Z,10848.00
2019-06-10T06:00:35.506Z,10740.00
2019-06-10T06:01:38.003Z,11004.00
2019-06-10T06:02:35.458Z,12008.00
2019-06-10T06:03:36.945Z,12348.00
2019-06-10T06:04:35.921Z,12484.00
2019-06-10T06:05:36.083Z,12604.00
2019-06-10T06:06:35.397Z,12644.00
2019-06-10T06:07:35.645Z,12544.00
2019-06-10T06:08:35.481Z,13760.00
2019-06-10T06:09:35.295Z,15344.00
2019-06-10T06:10:36.017Z,15952.00
2019-06-10T06:11:35.315Z,16060.00
2019-06-10T06:12:35.736Z,15564.00
2019-06-10T06:13:36.004Z,15028.00
2019-06-10T06:14:35.942Z,14964.00
2019-06-10T06:15:35.818Z,15916.00
2019-06-10T06:16:36.124Z,16920.00
2019-06-10T06:17:35.402Z,17240.00
2019-06-10T06:18:36.338Z,16940.00
2019-06-10T06:19:37.364Z,16316.00
2019-06-10T06:20:35.896Z,16480.00
2019-06-10T06:21:40.261Z,17660.00
2019-06-10T06:22:35.489Z,18164.00
2019-06-10T06:23:36.625Z,18140.00
2019-06-10T06:24:35.557Z,18184.00
2019-06-10T06:25:40.966Z,18240.00
2019-06-10T06:26:37.639Z,17992.00
2019-06-10T06:27:35.427Z,19200.00
2019-06-10T06:28:35.969Z,20064.00
2019-06-10T06:29:35.383Z,19808.00
2019-06-10T06:30:36.042Z,19072.00
2019-06-10T06:31:36.058Z,17540.00
2019-06-10T06:32:36.321Z,17976.00
2019-06-10T06:33:36.814Z,18752.00
2019-06-10T06:34:35.839Z,20096.00
2019-06-10T06:35:40.307Z,21984.00
2019-06-10T06:36:35.374Z,23680.00
2019-06-10T06:37:36.403Z,24544.00
2019-06-10T06:38:35.361Z,24544.00
2019-06-10T06:39:35.107Z,23424.00
2019-06-10T06:40:35.446Z,24416.00
2019-06-10T06:41:34.560Z,26048.00
2019-06-10T06:42:35.120Z,29440.00
2019-06-10T06:43:39.968Z,27296.00
2019-06-10T06:44:37.375Z,30912.00
2019-06-10T06:45:35.881Z,32192.00
2019-06-10T06:46:36.578Z,39488.00
2019-06-10T06:47:35.643Z,27264.00
2019-06-10T06:48:37.018Z,34560.00
2019-06-10T06:49:35.460Z,28064.00
2019-06-10T06:50:35.795Z,46016.00
2019-06-10T06:51:43.941Z,48352.00
2019-06-10T06:53:04.709Z,49088.00
2019-06-10T06:53:44.366Z,48384.00
2019-06-10T06:54:35.765Z,43776.00
2019-06-10T06:55:35.243Z,45056.00
2019-06-10T06:56:36.099Z,44480.00
2019-06-10T06:57:34.294Z,44064.00
2019-06-10T06:58:35.395Z,38464.00
2019-06-10T06:59:34.273Z,38112.00
2019-06-10T07:00:48.939Z,36000.00
2019-06-10T07:01:36.500Z,28288.00
2019-06-10T07:02:34.567Z,27520.00
2019-06-10T07:03:35.424Z,24832.00
2019-06-10T07:04:34.307Z,20704.00
2019-06-10T07:05:35.494Z,17656.00
2019-06-10T07:06:34.558Z,16756.00
2019-06-10T07:07:35.659Z,17548.00
2019-06-10T07:08:36.171Z,19616.00
2019-06-10T07:09:35.618Z,19584.00
2019-06-10T07:10:34.652Z,19104.00
2019-06-10T07:11:34.583Z,18252.00
2019-06-10T07:12:34.703Z,17792.00
2019-06-10T07:13:35.442Z,17176.00
2019-06-10T07:14:36.822Z,16664.00
2019-06-10T07:15:35.450Z,15704.00
2019-06-10T07:16:34.592Z,14388.00
2019-06-10T07:17:34.570Z,13776.00
2019-06-10T07:18:38.900Z,13932.00
2019-06-10T07:19:35.031Z,14064.00
2019-06-10T07:20:36.296Z,14104.00
2019-06-10T07:21:40.220Z,13948.00
2019-06-10T07:22:35.296Z,13408.00
2019-06-10T07:23:36.190Z,12668.00
2019-06-10T07:24:36.012Z,11952.00
2019-06-10T07:25:35.675Z,11720.00
2019-06-10T07:26:35.728Z,10888.00
2019-06-10T07:27:35.822Z,9320.00
2019-06-10T07:28:35.813Z,7848.00
2019-06-10T07:29:35.839Z,7128.00
2019-06-10T07:30:36.931Z,7056.00
2019-06-10T07:31:35.244Z,7364.00
2019-06-10T07:32:35.856Z,7824.00
2019-06-10T07:33:35.777Z,8168.00
2019-06-10T07:34:36.386Z,8420.00
2019-06-10T07:35:34.565Z,8024.00
2019-06-10T07:36:35.294Z,7672.00
2019-06-10T07:37:34.947Z,7712.00
2019-06-10T07:38:35.216Z,7600.00
2019-06-10T07:39:34.686Z,7984.00
2019-06-10T07:40:34.430Z,8536.00
2019-06-10T07:41:34.402Z,9228.00
2019-06-10T07:42:34.516Z,9824.00
2019-06-10T07:43:37.523Z,10392.00
2019-06-10T07:44:34.317Z,11456.00
2019-06-10T07:45:33.782Z,12956.00
2019-06-10T07:46:33.595Z,14612.00
2019-06-10T07:47:34.152Z,16436.00
2019-06-10T07:48:34.840Z,17264.00
2019-06-10T07:49:33.902Z,17988.00
2019-06-10T07:50:33.419Z,18624.00
2019-06-10T07:51:34.213Z,20512.00
2019-06-10T07:52:34.359Z,25248.00
2019-06-10T07:53:34.926Z,36576.00
2019-06-10T07:54:34.210Z,35936.00
2019-06-10T07:55:34.572Z,33312.00
2019-06-10T07:56:37.229Z,36000.00
2019-06-10T07:57:34.344Z,32992.00
2019-06-10T07:58:35.138Z,36448.00
2019-06-10T07:59:33.839Z,42272.00
2019-06-10T08:00:33.678Z,52224.00
2019-06-10T08:01:34.341Z,54528.00
2019-06-10T08:02:34.071Z,52288.00
2019-06-10T08:03:34.810Z,39392.00
2019-06-10T08:04:33.598Z,33248.00
2019-06-10T08:05:34.107Z,33376.00
2019-06-10T08:06:33.488Z,33184.00
2019-06-10T08:07:33.478Z,35904.00
2019-06-10T08:08:33.099Z,37472.00
2019-06-10T08:09:35.673Z,31072.00
2019-06-10T08:10:32.884Z,29760.00
2019-06-10T08:11:33.263Z,35200.00
2019-06-10T08:12:32.780Z,38272.00
2019-06-10T08:13:32.773Z,39872.00
2019-06-10T08:14:33.029Z,38560.00
2019-06-10T08:15:32.752Z,34208.00
2019-06-10T08:16:32.834Z,29408.00
2019-06-10T08:17:32.888Z,27936.00
2019-06-10T08:18:46.832Z,26080.00
2019-06-10T08:19:37.753Z,26624.00
2019-06-10T08:20:32.706Z,29472.00
2019-06-10T08:21:32.699Z,32352.00
2019-06-10T08:22:37.440Z,40704.00
2019-06-10T08:23:33.015Z,38304.00
2019-06-10T08:24:33.044Z,56512.00
2019-06-10T08:25:32.847Z,51712.00
2019-06-10T08:26:32.650Z,40064.00
2019-06-10T08:27:33.582Z,38400.00
2019-06-10T08:28:33.323Z,38560.00
2019-06-10T08:29:33.043Z,40896.00
2019-06-10T08:30:32.939Z,79776.00
2019-06-10T08:31:33.300Z,78592.00
2019-06-10T08:32:33.519Z,59552.00
2019-06-10T08:33:33.118Z,64640.00
2019-06-10T08:34:33.093Z,69600.00
2019-06-10T08:35:39.374Z,65984.00
2019-06-10T08:36:33.329Z,43168.00
2019-06-10T08:37:33.164Z,49440.00
2019-06-10T08:38:33.168Z,54624.00
2019-06-10T08:39:33.474Z,78208.00
2019-06-10T08:40:32.706Z,75456.00
2019-06-10T08:41:32.546Z,73728.00
2019-06-10T08:42:32.553Z,72384.00
2019-06-10T08:43:33.221Z,74336.00
2019-06-10T08:44:32.875Z,76352.00
2019-06-10T08:45:33.354Z,76032.00
2019-06-10T08:46:32.888Z,76192.00
2019-06-10T08:47:32.726Z,78336.00
2019-06-10T08:48:32.893Z,67488.00
2019-06-10T08:49:32.822Z,77920.00
2019-06-10T08:50:33.742Z,65536.00
2019-06-10T08:51:32.613Z,78592.00
2019-06-10T08:52:49.364Z,80256.00
2019-06-10T08:53:32.989Z,79136.00
2019-06-10T08:54:32.566Z,78176.00
2019-06-10T08:55:33.461Z,81376.00
2019-06-10T08:56:32.907Z,67392.00
2019-06-10T08:57:33.527Z,82496.00
2019-06-10T08:58:33.112Z,83488.00
2019-06-10T08:59:32.701Z,83040.00
2019-06-10T09:00:33.660Z,82880.00
2019-06-10T09:01:33.509Z,81088.00
2019-06-10T09:02:33.434Z,78624.00
2019-06-10T09:03:32.654Z,79488.00
2019-06-10T09:04:33.128Z,79840.00
2019-06-10T09:05:32.538Z,78016.00
2019-06-10T09:06:32.909Z,80608.00
2019-06-10T09:07:32.466Z,81664.00
2019-06-10T09:08:32.705Z,77856.00
2019-06-10T09:09:33.498Z,79264.00
2019-06-10T09:10:33.909Z,80384.00
2019-06-10T09:11:32.859Z,85472.00
2019-06-10T09:12:36.333Z,85792.00
2019-06-10T09:13:33.720Z,85408.00
2019-06-10T09:14:32.738Z,85280.00
2019-06-10T09:15:32.567Z,85472.00
2019-06-10T09:16:33.029Z,85760.00
2019-06-10T09:17:33.813Z,86176.00
2019-06-10T09:18:33.678Z,88576.00
2019-06-10T09:19:33.242Z,88704.00
2019-06-10T09:20:33.121Z,87360.00
2019-06-10T09:21:33.059Z,86048.00
2019-06-10T09:22:32.778Z,57792.00
2019-06-10T09:23:33.132Z,91904.00
2019-06-10T09:24:32.790Z,64000.00
2019-06-10T09:25:33.388Z,93632.00
2019-06-10T09:26:33.677Z,40960.00
2019-06-10T09:27:32.831Z,49216.00
2019-06-10T09:28:32.854Z,59296.00
2019-06-10T09:29:32.948Z,71168.00
2019-06-10T09:30:33.393Z,94432.00
2019-06-10T09:31:33.208Z,92224.00
2019-06-10T09:32:32.578Z,92256.00
2019-06-10T09:33:33.151Z,89056.00
2019-06-10T09:34:33.007Z,88672.00
2019-06-10T09:35:32.417Z,85632.00
2019-06-10T09:36:32.580Z,75072.00
2019-06-10T09:37:32.608Z,77376.00
2019-06-10T09:38:33.457Z,75840.00
2019-06-10T09:39:32.848Z,84224.00
2019-06-10T09:40:33.820Z,88000.00
2019-06-10T09:41:40.233Z,87360.00
2019-06-10T09:42:33.322Z,83552.00
2019-06-10T09:43:33.256Z,91872.00
2019-06-10T09:44:33.378Z,92000.00
2019-06-10T09:45:33.230Z,85024.00
2019-06-10T09:46:33.222Z,81792.00
2019-06-10T09:47:34.729Z,90944.00
2019-06-10T09:48:33.550Z,57440.00
2019-06-10T09:49:33.485Z,54336.00
2019-06-10T09:50:33.378Z,65600.00
2019-06-10T09:51:32.570Z,71328.00
2019-06-10T09:52:32.898Z,56896.00
2019-06-10T09:53:39.285Z,48800.00
2019-06-10T09:54:33.587Z,59616.00
2019-06-10T09:55:32.908Z,81984.00
2019-06-10T09:56:33.115Z,75776.00
2019-06-10T09:57:32.339Z,58240.00
2019-06-10T09:58:32.981Z,60640.00
2019-06-10T09:59:32.400Z,65888.00
2019-06-10T10:00:33.207Z,66528.00
2019-06-10T10:01:32.759Z,56640.00
2019-06-10T10:02:33.174Z,52864.00
2019-06-10T10:03:33.176Z,44704.00
2019-06-10T10:04:32.845Z,41376.00
2019-06-10T10:05:33.799Z,50560.00
2019-06-10T10:06:32.705Z,44192.00
2019-06-10T10:07:32.511Z,43936.00
2019-06-10T10:08:32.713Z,50944.00
2019-06-10T10:09:36.780Z,49376.00
2019-06-10T10:10:32.747Z,61152.00
2019-06-10T10:11:32.295Z,79744.00
2019-06-10T10:12:32.773Z,73664.00
2019-06-10T10:13:35.329Z,75680.00
2019-06-10T10:14:33.463Z,76608.00
2019-06-10T10:15:34.506Z,68480.00
2019-06-10T10:16:33.886Z,47328.00
2019-06-10T10:17:33.379Z,49248.00
2019-06-10T10:18:33.475Z,56704.00
2019-06-10T10:19:32.268Z,56512.00
2019-06-10T10:20:34.090Z,55136.00
2019-06-10T10:21:32.263Z,53280.00
2019-06-10T10:22:34.060Z,57024.00
2019-06-10T10:23:48.378Z,50528.00
2019-06-10T10:24:34.027Z,54016.00
2019-06-10T10:25:33.253Z,60928.00
2019-06-10T10:26:32.243Z,72064.00
2019-06-10T10:27:32.442Z,61760.00
2019-06-10T10:28:33.396Z,63712.00
2019-06-10T10:29:32.865Z,56960.00
2019-06-10T10:30:33.228Z,46976.00
2019-06-10T10:31:32.488Z,46016.00
2019-06-10T10:32:33.436Z,114112.00
2019-06-10T10:33:33.366Z,112320.00
2019-06-10T10:34:33.319Z,106720.00
2019-06-10T10:35:32.650Z,108032.00
2019-06-10T10:36:33.573Z,89600.00
2019-06-10T10:37:32.748Z,84672.00
2019-06-10T10:38:34.609Z,66336.00
2019-06-10T10:39:32.733Z,32544.00
2019-06-10T10:40:32.740Z,30752.00
2019-06-10T10:41:32.384Z,29440.00
2019-06-10T10:42:44.654Z,30496.00
2019-06-10T10:43:34.055Z,32096.00
2019-06-10T10:44:32.179Z,33152.00
2019-06-10T10:45:32.182Z,35296.00
2019-06-10T10:46:32.608Z,34816.00
2019-06-10T10:47:33.591Z,36608.00
2019-06-10T10:48:33.517Z,44608.00
2019-06-10T10:49:32.587Z,39296.00
2019-06-10T10:50:34.155Z,49504.00
2019-06-10T10:51:32.678Z,47264.00
2019-06-10T10:52:33.068Z,65376.00
2019-06-10T10:53:32.783Z,40992.00
2019-06-10T10:54:36.041Z,40640.00
2019-06-10T10:55:33.345Z,40512.00
2019-06-10T10:56:33.913Z,40800.00
2019-06-10T10:57:33.040Z,42208.00
2019-06-10T10:58:32.511Z,48992.00
2019-06-10T10:59:33.231Z,45408.00
2019-06-10T11:00:37.343Z,50944.00
2019-06-10T11:01:33.370Z,84064.00
2019-06-10T11:02:32.298Z,58176.00
2019-06-10T11:03:33.573Z,51392.00
2019-06-10T11:04:32.923Z,45824.00
2019-06-10T11:05:33.266Z,38944.00
2019-06-10T11:06:32.379Z,34880.00
2019-06-10T11:07:33.943Z,32320.00
2019-06-10T11:08:33.219Z,32032.00
2019-06-10T11:09:33.051Z,31744.00
2019-06-10T11:10:32.974Z,30784.00
2019-06-10T11:11:33.331Z,31168.00
2019-06-10T11:12:33.197Z,62336.00
2019-06-10T11:13:33.311Z,35488.00
2019-06-10T11:14:33.546Z,44192.00
2019-06-10T11:15:33.789Z,66592.00
2019-06-10T11:16:33.082Z,49632.00
2019-06-10T11:17:33.624Z,43584.00
2019-06-10T11:18:33.913Z,44192.00
2019-06-10T11:19:32.379Z,89696.00
2019-06-10T11:20:33.639Z,96416.00
2019-06-10T11:21:33.066Z,71360.00
2019-06-10T11:22:32.901Z,68736.00
2019-06-10T11:23:33.731Z,45568.00
2019-06-10T11:24:37.666Z,43936.00
2019-06-10T11:25:33.217Z,47136.00
2019-06-10T11:26:32.947Z,63008.00
2019-06-10T11:27:33.141Z,68896.00
2019-06-10T11:28:32.267Z,80448.00
2019-06-10T11:29:32.887Z,73600.00
2019-06-10T11:30:32.473Z,74816.00
2019-06-10T11:31:32.843Z,46880.00
2019-06-10T11:32:32.746Z,47232.00
2019-06-10T11:33:32.827Z,52640.00
2019-06-10T11:34:33.240Z,52992.00
2019-06-10T11:35:31.918Z,52672.00
2019-06-10T11:36:32.706Z,72352.00
2019-06-10T11:37:31.907Z,90304.00
2019-06-10T11:38:32.879Z,91136.00
2019-06-10T11:39:33.308Z,88608.00
2019-06-10T11:40:34.199Z,51264.00
2019-06-10T11:41:32.490Z,48544.00
2019-06-10T11:42:33.453Z,65344.00
2019-06-10T11:43:33.190Z,70592.00
2019-06-10T11:44:33.908Z,73216.00
2019-06-10T11:45:32.864Z,77120.00
2019-06-10T11:46:32.617Z,75712.00
2019-06-10T11:47:33.025Z,55008.00
2019-06-10T11:48:32.795Z,80896.00
2019-06-10T11:49:31.886Z,71648.00
2019-06-10T11:50:33.409Z,60416.00
2019-06-10T11:51:31.849Z,62656.00
2019-06-10T11:52:33.512Z,71360.00
2019-06-10T11:53:34.150Z,64800.00
2019-06-10T11:54:34.004Z,62464.00
2019-06-10T11:55:33.330Z,68832.00
2019-06-10T11:56:33.663Z,63936.00
2019-06-10T11:57:32.925Z,62976.00
2019-06-10T11:58:33.256Z,48096.00
2019-06-10T11:59:32.730Z,49312.00
2019-06-10T12:00:33.112Z,56416.00
2019-06-10T12:01:31.809Z,75456.00
2019-06-10T12:02:32.943Z,82240.00
2019-06-10T12:03:31.801Z,79200.00
2019-06-10T12:04:31.800Z,76032.00
2019-06-10T12:05:32.679Z,76544.00
2019-06-10T12:06:33.998Z,80000.00
2019-06-10T12:07:33.203Z,88928.00
2019-06-10T12:08:32.909Z,91744.00
2019-06-10T12:09:33.396Z,94560.00
2019-06-10T12:10:33.029Z,90240.00
2019-06-10T12:11:34.218Z,80128.00
2019-06-10T12:12:33.930Z,78752.00
2019-06-10T12:13:34.135Z,85152.00